Taoxian Airport
ZYTX : now visible

Airfield :











YOU CAN JOIN US ON...

 
LOGIN :

Register | Disclaimer

   EN    FR    IT 

 









Legend :    VFR   Marginal VFR   IFR   Intensive IFR   Very Intensive IFR
Visi :
Ceiling :
>= 8 km
>= 3000ft
5 to 8 km
1000 to 3000 ft
1500m to 5 km
500 to 1000 ft
800 to 1500m
200 to 500 ft
< 800m
< 200 ft
Symbols :   Thunderstorms  Fog  Heavy snow  Heavy precipitations  Wind > 20 kt






- Airport Elevation : 198 ft
- IATA code : SHE


ZYTX - Taoxian

CURRENT METAR :
  • 261530Z 30005MPS 9999 FEW040 15/08 Q1002 NOSIG

EXPIRED METARs :
  • 261500Z 29004MPS 260V330 9999 FEW040 15/09 Q1002 NOSIG
  • 261430Z 26004MPS CAVOK 14/10 Q1002 NOSIG
  • 261400Z 25002MPS 9999 FEW040 13/10 Q1002 NOSIG
  • 261330Z 24002MPS CAVOK 13/10 Q1002 NOSIG
  • 261300Z 25002MPS CAVOK 12/09 Q1002 NOSIG
  • 261230Z 25002MPS CAVOK 12/09 Q1002 NOSIG
  • 261200Z 26002MPS CAVOK 13/09 Q1002 NOSIG
  • 261130Z 28003MPS CAVOK 14/09 Q1002 NOSIG
  • 261100Z 29003MPS 260V340 CAVOK 15/09 Q1002 NOSIG
  • 261030Z 30004MPS CAVOK 15/10 Q1002 NOSIG

TAF TAF ZYTX
Valid from the 26 at 12:00 until the 27 at 12:00 UTC


260901Z 2612/2712 32004MPS 6000 BKN040 TX24/2706Z TN12/2621Z
ZYSH FIR / Asia



MET'MAP, your aeronautical weather chart ! - Copyright ORBIFLY December 2007 - Disclaimer

ORBIFLY MET'MAP TEAM :

Programming & Development : Alexandra Zaïnal
Original concept : Baudouin d'Aumeries
Technical & hardware support : Manuel Goepfert
Assistance : Marc-Olivier Méhu




SOURCES & CREDITS :

   NOAA       Earth
Advisory